sensor_id;sensor_type;location;lat;lon;timestamp;pressure;altitude;pressure_sealevel;temperature;humidity
72636;BME280;60679;48.888;15.544;2022-10-31T00:02:19;96686.63;;;7.22;nan
72636;BME280;60679;48.888;15.544;2022-10-31T00:04:44;96673.84;;;7.24;nan
72636;BME280;60679;48.888;15.544;2022-10-31T00:07:09;96680.22;;;7.23;nan
72636;BME280;60679;48.888;15.544;2022-10-31T00:09:35;96677.34;;;7.24;nan
72636;BME280;60679;48.888;15.544;2022-10-31T00:12:00;96675.50;;;7.25;nan
72636;BME280;60679;48.888;15.544;2022-10-31T00:14:26;96676.13;;;7.27;nan
72636;BME280;60679;48.888;15.544;2022-10-31T00:16:51;96676.75;;;7.29;nan
72636;BME280;60679;48.888;15.544;2022-10-31T00:19:16;96678.44;;;7.30;nan
72636;BME280;60679;48.888;15.544;2022-10-31T00:21:42;96675.94;;;7.28;nan
72636;BME280;60679;48.888;15.544;2022-10-31T00:24:07;96681.13;;;7.30;nan
72636;BME280;60679;48.888;15.544;2022-10-31T00:26:33;96682.13;;;7.29;nan
72636;BME280;60679;48.888;15.544;2022-10-31T00:28:59;96677.59;;;7.29;nan
72636;BME280;60679;48.888;15.544;2022-10-31T00:31:25;96681.31;;;7.28;nan
72636;BME280;60679;48.888;15.544;2022-10-31T00:33:50;96692.03;;;7.28;nan
72636;BME280;60679;48.888;15.544;2022-10-31T00:36:17;96679.44;;;7.29;nan
72636;BME280;60679;48.888;15.544;2022-10-31T00:38:44;96685.66;;;7.29;nan
72636;BME280;60679;48.888;15.544;2022-10-31T00:41:11;96687.72;;;7.27;nan
72636;BME280;60679;48.888;15.544;2022-10-31T00:43:36;96685.22;;;7.26;nan
72636;BME280;60679;48.888;15.544;2022-10-31T00:46:02;96688.47;;;7.21;nan
72636;BME280;60679;48.888;15.544;2022-10-31T00:48:28;96682.47;;;7.19;nan
72636;BME280;60679;48.888;15.544;2022-10-31T00:50:53;96684.50;;;7.17;nan
72636;BME280;60679;48.888;15.544;2022-10-31T00:53:19;96685.56;;;7.16;nan
72636;BME280;60679;48.888;15.544;2022-10-31T00:55:44;96682.03;;;7.16;nan
72636;BME280;60679;48.888;15.544;2022-10-31T00:58:10;96681.00;;;7.17;nan
72636;BME280;60679;48.888;15.544;2022-10-31T01:00:35;96689.25;;;7.15;nan
72636;BME280;60679;48.888;15.544;2022-10-31T01:03:00;96687.19;;;7.17;nan
72636;BME280;60679;48.888;15.544;2022-10-31T01:05:26;96680.34;;;7.15;nan
72636;BME280;60679;48.888;15.544;2022-10-31T01:07:51;96678.34;;;7.17;nan
72636;BME280;60679;48.888;15.544;2022-10-31T01:10:17;96681.00;;;7.17;nan
72636;BME280;60679;48.888;15.544;2022-10-31T01:12:47;96689.06;;;7.17;nan
72636;BME280;60679;48.888;15.544;2022-10-31T01:15:19;96687.19;;;7.17;nan
72636;BME280;60679;48.888;15.544;2022-10-31T01:17:45;96684.25;;;7.12;nan
72636;BME280;60679;48.888;15.544;2022-10-31T01:20:11;96683.41;;;7.12;nan
72636;BME280;60679;48.888;15.544;2022-10-31T01:22:37;96676.41;;;7.11;nan
72636;BME280;60679;48.888;15.544;2022-10-31T01:25:03;96679.09;;;7.11;nan
72636;BME280;60679;48.888;15.544;2022-10-31T01:27:31;96673.06;;;7.09;nan
72636;BME280;60679;48.888;15.544;2022-10-31T01:29:56;96667.91;;;7.07;nan
72636;BME280;60679;48.888;15.544;2022-10-31T01:32:21;96660.69;;;7.08;nan
72636;BME280;60679;48.888;15.544;2022-10-31T01:34:47;96664.38;;;7.07;nan
72636;BME280;60679;48.888;15.544;2022-10-31T01:37:13;96661.25;;;7.03;nan
72636;BME280;60679;48.888;15.544;2022-10-31T01:39:38;96664.13;;;7.02;nan
72636;BME280;60679;48.888;15.544;2022-10-31T01:42:03;96666.97;;;7.00;nan
72636;BME280;60679;48.888;15.544;2022-10-31T01:47:01;96663.28;;;7.01;nan
72636;BME280;60679;48.888;15.544;2022-10-31T01:49:46;96657.28;;;6.99;nan
72636;BME280;60679;48.888;15.544;2022-10-31T01:54:47;96656.25;;;6.79;nan
72636;BME280;60679;48.888;15.544;2022-10-31T01:57:17;96647.94;;;6.74;nan
72636;BME280;60679;48.888;15.544;2022-10-31T01:59:47;96654.06;;;6.68;nan
72636;BME280;60679;48.888;15.544;2022-10-31T02:02:15;96648.88;;;6.66;nan
72636;BME280;60679;48.888;15.544;2022-10-31T02:04:42;96648.25;;;6.64;nan
72636;BME280;60679;48.888;15.544;2022-10-31T02:07:22;96639.56;;;6.62;nan
72636;BME280;60679;48.888;15.544;2022-10-31T02:09:51;96644.00;;;6.55;nan
72636;BME280;60679;48.888;15.544;2022-10-31T02:12:18;96644.38;;;6.52;nan
72636;BME280;60679;48.888;15.544;2022-10-31T02:14:44;96648.09;;;6.51;nan
72636;BME280;60679;48.888;15.544;2022-10-31T02:17:10;96650.97;;;6.50;nan
72636;BME280;60679;48.888;15.544;2022-10-31T02:26:19;96648.72;;;6.32;nan
72636;BME280;60679;48.888;15.544;2022-10-31T02:28:40;96651.47;;;6.24;nan
72636;BME280;60679;48.888;15.544;2022-10-31T02:34:07;96659.19;;;6.12;nan
72636;BME280;60679;48.888;15.544;2022-10-31T02:36:50;96652.25;;;6.03;nan
72636;BME280;60679;48.888;15.544;2022-10-31T02:39:29;96654.00;;;5.96;nan
72636;BME280;60679;48.888;15.544;2022-10-31T02:47:29;96652.97;;;5.82;nan
72636;BME280;60679;48.888;15.544;2022-10-31T02:50:00;96654.81;;;5.82;nan
72636;BME280;60679;48.888;15.544;2022-10-31T02:52:30;96665.72;;;5.80;nan
72636;BME280;60679;48.888;15.544;2022-10-31T02:54:56;96659.72;;;5.78;nan
72636;BME280;60679;48.888;15.544;2022-10-31T02:57:29;96665.09;;;5.78;nan
72636;BME280;60679;48.888;15.544;2022-10-31T03:00:02;96664.25;;;5.78;nan
72636;BME280;60679;48.888;15.544;2022-10-31T03:10:57;96672.91;;;5.80;nan
72636;BME280;60679;48.888;15.544;2022-10-31T03:16:12;96677.28;;;5.81;nan
72636;BME280;60679;48.888;15.544;2022-10-31T03:18:43;96679.41;;;5.86;nan
72636;BME280;60679;48.888;15.544;2022-10-31T03:21:22;96675.91;;;5.85;nan
72636;BME280;60679;48.888;15.544;2022-10-31T03:23:51;96672.09;;;5.79;nan
72636;BME280;60679;48.888;15.544;2022-10-31T03:26:20;96675.81;;;5.78;nan
72636;BME280;60679;48.888;15.544;2022-10-31T03:29:03;96669.25;;;5.81;nan
72636;BME280;60679;48.888;15.544;2022-10-31T03:31:36;96680.75;;;5.81;nan
72636;BME280;60679;48.888;15.544;2022-10-31T03:34:04;96677.28;;;5.81;nan
72636;BME280;60679;48.888;15.544;2022-10-31T03:36:33;96677.91;;;5.83;nan
72636;BME280;60679;48.888;15.544;2022-10-31T03:39:02;96680.25;;;5.86;nan
72636;BME280;60679;48.888;15.544;2022-10-31T03:41:32;96675.53;;;5.88;nan
72636;BME280;60679;48.888;15.544;2022-10-31T03:44:05;96673.97;;;5.94;nan
72636;BME280;60679;48.888;15.544;2022-10-31T03:46:32;96676.13;;;5.98;nan
72636;BME280;60679;48.888;15.544;2022-10-31T03:48:58;96672.59;;;5.98;nan
72636;BME280;60679;48.888;15.544;2022-10-31T03:56:29;96674.25;;;5.99;nan
72636;BME280;60679;48.888;15.544;2022-10-31T03:59:00;96671.56;;;5.99;nan
72636;BME280;60679;48.888;15.544;2022-10-31T04:01:29;96673.59;;;5.97;nan
72636;BME280;60679;48.888;15.544;2022-10-31T04:03:56;96665.09;;;5.93;nan
72636;BME280;60679;48.888;15.544;2022-10-31T04:06:24;96670.00;;;5.90;nan
72636;BME280;60679;48.888;15.544;2022-10-31T04:08:55;96675.91;;;5.85;nan
72636;BME280;60679;48.888;15.544;2022-10-31T04:11:24;96675.22;;;5.83;nan
72636;BME280;60679;48.888;15.544;2022-10-31T04:13:53;96665.88;;;5.79;nan
72636;BME280;60679;48.888;15.544;2022-10-31T04:16:20;96679.00;;;5.74;nan
72636;BME280;60679;48.888;15.544;2022-10-31T04:18:47;96672.38;;;5.70;nan
72636;BME280;60679;48.888;15.544;2022-10-31T04:21:12;96679.09;;;5.66;nan
72636;BME280;60679;48.888;15.544;2022-10-31T04:23:37;96676.31;;;5.59;nan
72636;BME280;60679;48.888;15.544;2022-10-31T04:26:03;96679.72;;;5.53;nan
72636;BME280;60679;48.888;15.544;2022-10-31T04:28:29;96678.44;;;5.49;nan
72636;BME280;60679;48.888;15.544;2022-10-31T04:30:54;96682.13;;;5.48;nan
72636;BME280;60679;48.888;15.544;2022-10-31T04:33:20;96683.50;;;5.44;nan
72636;BME280;60679;48.888;15.544;2022-10-31T04:35:46;96682.84;;;5.42;nan
72636;BME280;60679;48.888;15.544;2022-10-31T04:38:11;96684.03;;;5.40;nan
72636;BME280;60679;48.888;15.544;2022-10-31T04:40:37;96692.06;;;5.40;nan
72636;BME280;60679;48.888;15.544;2022-10-31T04:43:02;96684.88;;;5.40;nan
72636;BME280;60679;48.888;15.544;2022-10-31T04:45:28;96680.91;;;5.36;nan
72636;BME280;60679;48.888;15.544;2022-10-31T04:47:53;96683.75;;;5.35;nan
72636;BME280;60679;48.888;15.544;2022-10-31T04:50:18;96682.91;;;5.34;nan
72636;BME280;60679;48.888;15.544;2022-10-31T04:52:45;96689.94;;;5.35;nan
72636;BME280;60679;48.888;15.544;2022-10-31T04:55:11;96691.22;;;5.39;nan
72636;BME280;60679;48.888;15.544;2022-10-31T04:57:41;96691.91;;;5.41;nan
72636;BME280;60679;48.888;15.544;2022-10-31T05:00:08;96686.34;;;5.43;nan
72636;BME280;60679;48.888;15.544;2022-10-31T05:02:34;96687.19;;;5.43;nan
72636;BME280;60679;48.888;15.544;2022-10-31T05:05:02;96687.38;;;5.42;nan
72636;BME280;60679;48.888;15.544;2022-10-31T05:07:29;96683.59;;;5.36;nan
72636;BME280;60679;48.888;15.544;2022-10-31T05:09:54;96693.63;;;5.34;nan
72636;BME280;60679;48.888;15.544;2022-10-31T05:12:20;96698.34;;;5.32;nan
72636;BME280;60679;48.888;15.544;2022-10-31T05:14:45;96691.50;;;5.30;nan
72636;BME280;60679;48.888;15.544;2022-10-31T05:17:10;96691.50;;;5.30;nan
72636;BME280;60679;48.888;15.544;2022-10-31T05:19:36;96690.09;;;5.34;nan
72636;BME280;60679;48.888;15.544;2022-10-31T05:22:01;96702.31;;;5.36;nan
72636;BME280;60679;48.888;15.544;2022-10-31T05:24:27;96696.13;;;5.36;nan
72636;BME280;60679;48.888;15.544;2022-10-31T05:26:52;96698.97;;;5.34;nan
72636;BME280;60679;48.888;15.544;2022-10-31T05:29:18;96693.47;;;5.36;nan
72636;BME280;60679;48.888;15.544;2022-10-31T05:31:43;96697.78;;;5.37;nan
72636;BME280;60679;48.888;15.544;2022-10-31T05:34:09;96692.63;;;5.35;nan
72636;BME280;60679;48.888;15.544;2022-10-31T05:36:34;96694.47;;;5.35;nan
72636;BME280;60679;48.888;15.544;2022-10-31T05:38:59;96697.69;;;5.30;nan
72636;BME280;60679;48.888;15.544;2022-10-31T05:41:25;96698.88;;;5.28;nan
72636;BME280;60679;48.888;15.544;2022-10-31T05:43:50;96698.56;;;5.22;nan
72636;BME280;60679;48.888;15.544;2022-10-31T05:46:16;96695.44;;;5.19;nan
72636;BME280;60679;48.888;15.544;2022-10-31T05:48:41;96705.97;;;5.20;nan
72636;BME280;60679;48.888;15.544;2022-10-31T05:51:07;96713.34;;;5.18;nan
72636;BME280;60679;48.888;15.544;2022-10-31T05:53:32;96708.63;;;5.20;nan
72636;BME280;60679;48.888;15.544;2022-10-31T05:55:57;96710.94;;;5.23;nan
72636;BME280;60679;48.888;15.544;2022-10-31T05:58:23;96707.72;;;5.28;nan
72636;BME280;60679;48.888;15.544;2022-10-31T06:00:48;96704.53;;;5.33;nan
72636;BME280;60679;48.888;15.544;2022-10-31T06:03:14;96702.59;;;5.41;nan
72636;BME280;60679;48.888;15.544;2022-10-31T06:05:39;96704.50;;;5.55;nan
72636;BME280;60679;48.888;15.544;2022-10-31T06:08:05;96697.59;;;5.75;nan
72636;BME280;60679;48.888;15.544;2022-10-31T06:10:30;96706.22;;;6.00;nan
72636;BME280;60679;48.888;15.544;2022-10-31T06:12:56;96704.66;;;6.20;nan
72636;BME280;60679;48.888;15.544;2022-10-31T06:15:21;96708.88;;;6.44;nan
72636;BME280;60679;48.888;15.544;2022-10-31T06:17:57;96713.75;;;6.55;nan
72636;BME280;60679;48.888;15.544;2022-10-31T06:20:23;96715.09;;;6.45;nan
72636;BME280;60679;48.888;15.544;2022-10-31T06:22:48;96720.03;;;6.26;nan
72636;BME280;60679;48.888;15.544;2022-10-31T06:25:14;96719.06;;;6.19;nan
72636;BME280;60679;48.888;15.544;2022-10-31T06:27:39;96720.19;;;6.10;nan
72636;BME280;60679;48.888;15.544;2022-10-31T06:30:05;96721.03;;;6.11;nan
72636;BME280;60679;48.888;15.544;2022-10-31T06:32:31;96722.69;;;6.12;nan
72636;BME280;60679;48.888;15.544;2022-10-31T06:34:56;96723.44;;;6.20;nan
72636;BME280;60679;48.888;15.544;2022-10-31T06:37:22;96721.63;;;6.57;nan
72636;BME280;60679;48.888;15.544;2022-10-31T06:39:47;96721.72;;;7.20;nan
72636;BME280;60679;48.888;15.544;2022-10-31T06:42:15;96733.44;;;7.83;nan
72636;BME280;60679;48.888;15.544;2022-10-31T06:44:41;96732.66;;;8.17;nan
72636;BME280;60679;48.888;15.544;2022-10-31T06:47:06;96727.91;;;8.19;nan
72636;BME280;60679;48.888;15.544;2022-10-31T06:49:32;96734.97;;;7.92;nan
72636;BME280;60679;48.888;15.544;2022-10-31T06:51:58;96731.50;;;7.70;nan
72636;BME280;60679;48.888;15.544;2022-10-31T06:54:24;96732.66;;;7.61;nan
72636;BME280;60679;48.888;15.544;2022-10-31T06:56:49;96733.13;;;7.71;nan
72636;BME280;60679;48.888;15.544;2022-10-31T06:59:15;96731.00;;;8.50;nan
72636;BME280;60679;48.888;15.544;2022-10-31T07:01:41;96734.81;;;9.29;nan
72636;BME280;60679;48.888;15.544;2022-10-31T07:04:10;96741.97;;;9.96;nan
72636;BME280;60679;48.888;15.544;2022-10-31T07:06:59;96741.28;;;10.53;nan
72636;BME280;60679;48.888;15.544;2022-10-31T07:09:25;96742.97;;;10.98;nan
72636;BME280;60679;48.888;15.544;2022-10-31T07:11:53;96739.47;;;11.35;nan
72636;BME280;60679;48.888;15.544;2022-10-31T07:14:18;96754.00;;;11.79;nan
72636;BME280;60679;48.888;15.544;2022-10-31T07:16:49;96748.66;;;12.22;nan
72636;BME280;60679;48.888;15.544;2022-10-31T07:19:15;96747.22;;;12.62;nan
72636;BME280;60679;48.888;15.544;2022-10-31T07:21:41;96741.44;;;12.95;nan
72636;BME280;60679;48.888;15.544;2022-10-31T07:24:08;96741.13;;;13.21;nan
72636;BME280;60679;48.888;15.544;2022-10-31T07:26:33;96735.72;;;13.51;nan
72636;BME280;60679;48.888;15.544;2022-10-31T07:28:59;96738.28;;;13.75;nan
72636;BME280;60679;48.888;15.544;2022-10-31T07:31:25;96745.66;;;13.98;nan
72636;BME280;60679;48.888;15.544;2022-10-31T07:33:51;96739.13;;;14.40;nan
72636;BME280;60679;48.888;15.544;2022-10-31T07:36:17;96736.63;;;14.62;nan
72636;BME280;60679;48.888;15.544;2022-10-31T07:38:45;96737.63;;;14.96;nan
72636;BME280;60679;48.888;15.544;2022-10-31T07:41:10;96745.84;;;15.24;nan
72636;BME280;60679;48.888;15.544;2022-10-31T07:43:36;96735.84;;;15.53;nan
72636;BME280;60679;48.888;15.544;2022-10-31T07:46:06;96736.25;;;15.90;nan
72636;BME280;60679;48.888;15.544;2022-10-31T07:48:31;96736.13;;;16.30;nan
72636;BME280;60679;48.888;15.544;2022-10-31T07:50:57;96736.28;;;16.73;nan
72636;BME280;60679;48.888;15.544;2022-10-31T07:53:23;96737.75;;;17.02;nan
72636;BME280;60679;48.888;15.544;2022-10-31T07:55:48;96730.00;;;17.33;nan
72636;BME280;60679;48.888;15.544;2022-10-31T07:58:15;96728.81;;;17.72;nan
72636;BME280;60679;48.888;15.544;2022-10-31T08:00:46;96730.72;;;17.98;nan
72636;BME280;60679;48.888;15.544;2022-10-31T08:03:14;96731.56;;;18.30;nan
72636;BME280;60679;48.888;15.544;2022-10-31T08:05:40;96734.81;;;18.59;nan
72636;BME280;60679;48.888;15.544;2022-10-31T08:08:11;96741.25;;;18.80;nan
72636;BME280;60679;48.888;15.544;2022-10-31T08:10:39;96734.50;;;18.97;nan
72636;BME280;60679;48.888;15.544;2022-10-31T08:13:11;96728.75;;;19.51;nan
72636;BME280;60679;48.888;15.544;2022-10-31T08:15:37;96733.00;;;19.99;nan
72636;BME280;60679;48.888;15.544;2022-10-31T08:18:06;96732.25;;;20.29;nan
72636;BME280;60679;48.888;15.544;2022-10-31T08:20:32;96734.16;;;20.79;nan
72636;BME280;60679;48.888;15.544;2022-10-31T08:23:04;96733.50;;;21.32;nan
72636;BME280;60679;48.888;15.544;2022-10-31T08:25:33;96728.34;;;21.79;nan
72636;BME280;60679;48.888;15.544;2022-10-31T08:27:59;96727.59;;;21.64;nan
72636;BME280;60679;48.888;15.544;2022-10-31T08:30:28;96729.72;;;21.87;nan
72636;BME280;60679;48.888;15.544;2022-10-31T08:33:09;96726.94;;;21.92;nan
72636;BME280;60679;48.888;15.544;2022-10-31T08:35:38;96722.47;;;22.40;nan
72636;BME280;60679;48.888;15.544;2022-10-31T08:38:04;96730.00;;;22.92;nan
72636;BME280;60679;48.888;15.544;2022-10-31T08:40:31;96722.59;;;23.40;nan
72636;BME280;60679;48.888;15.544;2022-10-31T08:45:23;96720.31;;;24.08;nan
72636;BME280;60679;48.888;15.544;2022-10-31T08:47:48;96717.34;;;24.60;nan
72636;BME280;60679;48.888;15.544;2022-10-31T08:50:16;96715.22;;;25.03;nan
72636;BME280;60679;48.888;15.544;2022-10-31T08:52:45;96716.00;;;25.50;nan
72636;BME280;60679;48.888;15.544;2022-10-31T08:55:10;96721.97;;;26.20;nan
72636;BME280;60679;48.888;15.544;2022-10-31T08:57:36;96726.97;;;26.76;nan
72636;BME280;60679;48.888;15.544;2022-10-31T09:00:02;96723.25;;;27.33;nan
72636;BME280;60679;48.888;15.544;2022-10-31T09:02:28;96717.19;;;28.10;nan
72636;BME280;60679;48.888;15.544;2022-10-31T09:04:53;96716.88;;;28.89;nan
72636;BME280;60679;48.888;15.544;2022-10-31T09:07:19;96709.75;;;29.34;nan
72636;BME280;60679;48.888;15.544;2022-10-31T09:09:44;96703.56;;;29.66;nan
72636;BME280;60679;48.888;15.544;2022-10-31T09:12:10;96706.47;;;30.28;nan
72636;BME280;60679;48.888;15.544;2022-10-31T09:14:35;96711.63;;;31.01;nan
72636;BME280;60679;48.888;15.544;2022-10-31T09:17:01;96707.41;;;31.39;nan
72636;BME280;60679;48.888;15.544;2022-10-31T09:19:26;96711.47;;;31.42;nan
72636;BME280;60679;48.888;15.544;2022-10-31T09:21:53;96711.06;;;32.00;nan
72636;BME280;60679;48.888;15.544;2022-10-31T09:24:19;96716.06;;;32.19;nan
72636;BME280;60679;48.888;15.544;2022-10-31T09:26:45;96718.88;;;32.19;nan
72636;BME280;60679;48.888;15.544;2022-10-31T09:29:10;96704.13;;;32.46;nan
72636;BME280;60679;48.888;15.544;2022-10-31T09:31:36;96709.88;;;33.05;nan
72636;BME280;60679;48.888;15.544;2022-10-31T09:34:01;96720.00;;;33.53;nan
72636;BME280;60679;48.888;15.544;2022-10-31T09:36:27;96705.00;;;33.93;nan
72636;BME280;60679;48.888;15.544;2022-10-31T09:38:53;96715.31;;;34.20;nan
72636;BME280;60679;48.888;15.544;2022-10-31T09:44:14;96704.94;;;34.94;nan
72636;BME280;60679;48.888;15.544;2022-10-31T09:47:04;96703.47;;;35.19;nan
72636;BME280;60679;48.888;15.544;2022-10-31T09:52:18;96695.81;;;36.07;nan
72636;BME280;60679;48.888;15.544;2022-10-31T09:54:53;96697.81;;;36.32;nan
72636;BME280;60679;48.888;15.544;2022-10-31T09:57:30;96681.34;;;36.61;nan
72636;BME280;60679;48.888;15.544;2022-10-31T09:59:58;96687.34;;;36.89;nan
72636;BME280;60679;48.888;15.544;2022-10-31T10:02:37;96682.53;;;37.23;nan
72636;BME280;60679;48.888;15.544;2022-10-31T10:05:05;96685.81;;;37.32;nan
72636;BME280;60679;48.888;15.544;2022-10-31T10:07:46;96684.00;;;37.46;nan
72636;BME280;60679;48.888;15.544;2022-10-31T10:10:20;96684.91;;;37.54;nan
72636;BME280;60679;48.888;15.544;2022-10-31T10:15:41;96683.47;;;38.25;nan
72636;BME280;60679;48.888;15.544;2022-10-31T10:26:21;96673.78;;;38.91;nan
72636;BME280;60679;48.888;15.544;2022-10-31T10:31:46;96673.22;;;39.65;nan
72636;BME280;60679;48.888;15.544;2022-10-31T10:34:30;96667.16;;;39.80;nan
72636;BME280;60679;48.888;15.544;2022-10-31T10:37:01;96667.53;;;40.28;nan
72636;BME280;60679;48.888;15.544;2022-10-31T10:39:44;96656.56;;;40.48;nan
72636;BME280;60679;48.888;15.544;2022-10-31T10:42:13;96655.34;;;40.60;nan
72636;BME280;60679;48.888;15.544;2022-10-31T10:44:57;96654.53;;;40.66;nan
72636;BME280;60679;48.888;15.544;2022-10-31T10:47:43;96653.19;;;41.03;nan
72636;BME280;60679;48.888;15.544;2022-10-31T10:50:19;96659.88;;;41.40;nan
72636;BME280;60679;48.888;15.544;2022-10-31T10:53:01;96656.97;;;41.51;nan
72636;BME280;60679;48.888;15.544;2022-10-31T10:58:12;96647.03;;;42.28;nan
72636;BME280;60679;48.888;15.544;2022-10-31T11:00:41;96651.34;;;41.99;nan
72636;BME280;60679;48.888;15.544;2022-10-31T11:03:07;96654.75;;;42.28;nan
72636;BME280;60679;48.888;15.544;2022-10-31T11:05:36;96646.81;;;42.46;nan
72636;BME280;60679;48.888;15.544;2022-10-31T11:08:03;96642.69;;;42.88;nan
72636;BME280;60679;48.888;15.544;2022-10-31T11:10:29;96634.84;;;43.29;nan
72636;BME280;60679;48.888;15.544;2022-10-31T11:13:17;96640.16;;;43.57;nan
72636;BME280;60679;48.888;15.544;2022-10-31T11:16:13;96639.41;;;43.80;nan
72636;BME280;60679;48.888;15.544;2022-10-31T11:18:42;96638.75;;;44.19;nan
72636;BME280;60679;48.888;15.544;2022-10-31T11:21:29;96630.50;;;44.25;nan
72636;BME280;60679;48.888;15.544;2022-10-31T11:26:40;96624.22;;;44.33;nan
72636;BME280;60679;48.888;15.544;2022-10-31T11:29:29;96622.94;;;44.57;nan
72636;BME280;60679;48.888;15.544;2022-10-31T11:31:55;96619.03;;;44.71;nan
72636;BME280;60679;48.888;15.544;2022-10-31T11:34:44;96620.63;;;44.72;nan
72636;BME280;60679;48.888;15.544;2022-10-31T11:37:15;96623.63;;;44.65;nan
72636;BME280;60679;48.888;15.544;2022-10-31T11:39:45;96619.03;;;44.71;nan
72636;BME280;60679;48.888;15.544;2022-10-31T11:42:11;96610.84;;;44.93;nan
72636;BME280;60679;48.888;15.544;2022-10-31T11:44:42;96616.44;;;45.36;nan
72636;BME280;60679;48.888;15.544;2022-10-31T11:47:14;96603.25;;;45.58;nan
72636;BME280;60679;48.888;15.544;2022-10-31T11:49:42;96605.63;;;45.59;nan
72636;BME280;60679;48.888;15.544;2022-10-31T11:57:41;96594.84;;;45.99;nan
72636;BME280;60679;48.888;15.544;2022-10-31T12:00:36;96594.44;;;45.84;nan
72636;BME280;60679;48.888;15.544;2022-10-31T12:05:48;96575.06;;;46.08;nan
72636;BME280;60679;48.888;15.544;2022-10-31T12:08:14;96574.75;;;46.35;nan
72636;BME280;60679;48.888;15.544;2022-10-31T12:10:58;96576.78;;;46.34;nan
72636;BME280;60679;48.888;15.544;2022-10-31T12:16:04;96573.44;;;46.23;nan
72636;BME280;60679;48.888;15.544;2022-10-31T12:18:38;96563.50;;;46.57;nan
72636;BME280;60679;48.888;15.544;2022-10-31T12:24:16;96563.47;;;46.44;nan
72636;BME280;60679;48.888;15.544;2022-10-31T12:27:11;96564.00;;;46.68;nan
72636;BME280;60679;48.888;15.544;2022-10-31T12:32:29;96563.00;;;45.84;nan
72636;BME280;60679;48.888;15.544;2022-10-31T12:35:13;96553.03;;;45.76;nan
72636;BME280;60679;48.888;15.544;2022-10-31T12:45:52;96548.72;;;45.84;nan
72636;BME280;60679;48.888;15.544;2022-10-31T13:02:35;96532.69;;;45.06;nan
72636;BME280;60679;48.888;15.544;2022-10-31T13:05:40;96532.50;;;44.97;nan
72636;BME280;60679;48.888;15.544;2022-10-31T13:08:09;96532.41;;;44.65;nan
72636;BME280;60679;48.888;15.544;2022-10-31T13:10:42;96528.59;;;43.89;nan
72636;BME280;60679;48.888;15.544;2022-10-31T13:16:23;96528.09;;;43.21;nan
72636;BME280;60679;48.888;15.544;2022-10-31T13:19:10;96521.13;;;42.99;nan
72636;BME280;60679;48.888;15.544;2022-10-31T13:21:48;96518.84;;;42.87;nan
72636;BME280;60679;48.888;15.544;2022-10-31T13:24:20;96512.81;;;42.51;nan
72636;BME280;60679;48.888;15.544;2022-10-31T13:26:57;96510.94;;;42.37;nan
72636;BME280;60679;48.888;15.544;2022-10-31T13:29:30;96507.41;;;42.30;nan
72636;BME280;60679;48.888;15.544;2022-10-31T13:32:00;96511.25;;;42.46;nan
72636;BME280;60679;48.888;15.544;2022-10-31T13:34:46;96512.88;;;42.47;nan
72636;BME280;60679;48.888;15.544;2022-10-31T13:45:19;96500.81;;;41.62;nan
72636;BME280;60679;48.888;15.544;2022-10-31T13:48:18;96502.59;;;39.93;nan
72636;BME280;60679;48.888;15.544;2022-10-31T13:50:59;96509.00;;;34.03;nan
72636;BME280;60679;48.888;15.544;2022-10-31T13:56:33;96503.09;;;28.24;nan
72636;BME280;60679;48.888;15.544;2022-10-31T13:59:17;96504.22;;;26.63;nan
72636;BME280;60679;48.888;15.544;2022-10-31T14:01:50;96505.84;;;25.58;nan
72636;BME280;60679;48.888;15.544;2022-10-31T14:04:21;96506.78;;;24.63;nan
72636;BME280;60679;48.888;15.544;2022-10-31T14:09:33;96511.34;;;23.07;nan
72636;BME280;60679;48.888;15.544;2022-10-31T14:12:07;96508.19;;;22.52;nan
72636;BME280;60679;48.888;15.544;2022-10-31T14:14:42;96509.91;;;22.19;nan
72636;BME280;60679;48.888;15.544;2022-10-31T14:17:17;96511.47;;;21.68;nan
72636;BME280;60679;48.888;15.544;2022-10-31T14:22:32;96512.81;;;20.93;nan
72636;BME280;60679;48.888;15.544;2022-10-31T14:24:58;96509.09;;;20.68;nan
72636;BME280;60679;48.888;15.544;2022-10-31T14:29:52;96510.06;;;20.34;nan
72636;BME280;60679;48.888;15.544;2022-10-31T14:32:25;96504.59;;;20.08;nan
72636;BME280;60679;48.888;15.544;2022-10-31T14:34:52;96504.41;;;19.70;nan
72636;BME280;60679;48.888;15.544;2022-10-31T14:37:56;96500.75;;;19.09;nan
72636;BME280;60679;48.888;15.544;2022-10-31T14:41:08;96496.00;;;18.54;nan
72636;BME280;60679;48.888;15.544;2022-10-31T14:46:40;96498.38;;;17.93;nan
72636;BME280;60679;48.888;15.544;2022-10-31T14:51:47;96502.81;;;17.30;nan
72636;BME280;60679;48.888;15.544;2022-10-31T14:54:29;96504.56;;;17.10;nan
72636;BME280;60679;48.888;15.544;2022-10-31T14:57:00;96504.59;;;16.88;nan
72636;BME280;60679;48.888;15.544;2022-10-31T14:59:31;96506.97;;;16.80;nan
72636;BME280;60679;48.888;15.544;2022-10-31T15:02:09;96501.13;;;16.71;nan
72636;BME280;60679;48.888;15.544;2022-10-31T15:04:37;96502.63;;;16.57;nan
72636;BME280;60679;48.888;15.544;2022-10-31T15:07:14;96505.38;;;16.40;nan
72636;BME280;60679;48.888;15.544;2022-10-31T15:09:41;96505.47;;;16.24;nan
72636;BME280;60679;48.888;15.544;2022-10-31T15:12:28;96504.41;;;16.03;nan
72636;BME280;60679;48.888;15.544;2022-10-31T15:14:54;96505.84;;;15.89;nan
72636;BME280;60679;48.888;15.544;2022-10-31T15:17:22;96510.38;;;15.67;nan
72636;BME280;60679;48.888;15.544;2022-10-31T15:19:48;96510.09;;;15.46;nan
72636;BME280;60679;48.888;15.544;2022-10-31T15:22:16;96507.66;;;15.33;nan
72636;BME280;60679;48.888;15.544;2022-10-31T15:24:43;96508.41;;;15.12;nan
72636;BME280;60679;48.888;15.544;2022-10-31T15:27:12;96509.53;;;14.99;nan
72636;BME280;60679;48.888;15.544;2022-10-31T15:29:50;96508.84;;;14.76;nan
72636;BME280;60679;48.888;15.544;2022-10-31T15:32:28;96509.50;;;14.55;nan
72636;BME280;60679;48.888;15.544;2022-10-31T15:34:54;96506.41;;;14.34;nan
72636;BME280;60679;48.888;15.544;2022-10-31T15:37:22;96512.28;;;14.31;nan
72636;BME280;60679;48.888;15.544;2022-10-31T15:39:50;96508.72;;;14.31;nan
72636;BME280;60679;48.888;15.544;2022-10-31T15:42:39;96510.53;;;14.25;nan